createdAt,value
2023-05-11T00:02:18.294Z,0.80
2023-05-11T00:12:22.838Z,0.97
2023-05-11T00:22:26.352Z,1.00
2023-05-11T00:32:30.965Z,1.00
2023-05-11T00:42:34.477Z,0.90
2023-05-11T00:52:39.152Z,0.80
2023-05-11T01:02:42.744Z,1.08
2023-05-11T01:12:55.974Z,0.90
2023-05-11T01:23:26.181Z,0.98
2023-05-11T01:33:35.221Z,1.00
2023-05-11T01:43:40.033Z,1.02
2023-05-11T01:53:45.649Z,1.00
2023-05-11T02:03:50.681Z,0.80
2023-05-11T02:13:57.643Z,0.90
2023-05-11T02:24:02.549Z,1.10
2023-05-11T02:34:14.916Z,1.00
2023-05-11T02:44:21.252Z,1.05
2023-05-11T02:54:27.427Z,1.23
2023-05-11T03:04:31.526Z,1.08
2023-05-11T03:14:37.786Z,1.00
2023-05-11T03:24:41.979Z,0.90
2023-05-11T03:34:46.656Z,0.98
2023-05-11T03:44:56.001Z,0.90
2023-05-11T03:55:00.778Z,0.90
2023-05-11T04:05:09.538Z,1.10
2023-05-11T04:15:14.196Z,0.90
2023-05-11T04:25:17.735Z,1.17
2023-05-11T04:35:23.705Z,1.07
2023-05-11T04:45:26.997Z,1.38
2023-05-11T04:55:31.819Z,0.95
2023-05-11T05:05:36.368Z,1.00
2023-05-11T05:15:41.220Z,1.20
2023-05-11T05:25:44.508Z,1.20
2023-05-11T05:35:49.302Z,1.10
2023-05-11T05:45:53.056Z,1.20
2023-05-11T05:55:57.640Z,1.02
2023-05-11T06:06:02.114Z,1.02
2023-05-11T06:16:07.343Z,1.20
2023-05-11T06:26:12.002Z,1.08
2023-05-11T06:36:17.355Z,1.10
2023-05-11T06:46:22.328Z,1.10
2023-05-11T06:56:27.805Z,1.00
2023-05-11T07:06:31.037Z,1.20
2023-05-11T07:16:38.070Z,1.20
2023-05-11T07:26:41.306Z,1.00
2023-05-11T07:36:46.432Z,1.10
2023-05-11T07:46:49.602Z,1.10
2023-05-11T07:56:54.208Z,0.90
2023-05-11T08:06:58.377Z,1.10
2023-05-11T08:17:02.863Z,1.02
2023-05-11T08:27:06.249Z,1.20
2023-05-11T08:37:10.752Z,1.02
2023-05-11T08:57:21.735Z,1.20
2023-05-11T09:07:27.845Z,1.10
2023-05-11T09:17:32.426Z,1.08
2023-05-11T09:27:35.941Z,0.65
2023-05-11T09:37:40.511Z,1.05
2023-05-11T09:47:43.794Z,0.77
2023-05-11T09:57:55.475Z,1.00
2023-05-11T10:08:00.044Z,1.00
2023-05-11T10:18:04.866Z,0.80
2023-05-11T10:28:08.538Z,0.90
2023-05-11T10:38:15.138Z,0.80
2023-05-11T10:48:58.839Z,0.60
2023-05-11T10:59:32.685Z,0.95
2023-05-11T11:09:51.851Z,1.00
2023-05-11T11:19:57.419Z,1.20
2023-05-11T11:30:20.121Z,0.82
2023-05-11T11:40:49.537Z,0.77
2023-05-11T11:51:04.352Z,0.90
2023-05-11T12:01:09.505Z,0.88
2023-05-11T12:11:17.330Z,0.95
2023-05-11T12:21:23.178Z,1.10
2023-05-11T12:31:27.288Z,1.60
2023-05-11T12:41:32.124Z,1.17
2023-05-11T12:52:02.162Z,1.10
2023-05-11T13:02:17.273Z,0.90
2023-05-11T13:12:21.323Z,1.00
2023-05-11T13:22:26.072Z,1.00
2023-05-11T13:32:30.443Z,1.00
2023-05-11T13:42:35.284Z,0.77
2023-05-11T13:52:40.375Z,0.80
2023-05-11T14:02:45.105Z,0.90
2023-05-11T14:12:48.388Z,0.75
2023-05-11T14:22:52.967Z,0.70
2023-05-11T14:32:56.408Z,0.90
2023-05-11T14:43:01.464Z,0.80
2023-05-11T14:53:04.676Z,0.80
2023-05-11T15:03:10.876Z,0.57
2023-05-11T15:13:15.358Z,0.50
2023-05-11T15:23:19.922Z,0.63
2023-05-11T15:33:23.120Z,0.80
2023-05-11T15:43:27.781Z,0.82
2023-05-11T15:53:31.291Z,0.82
2023-05-11T16:03:36.051Z,1.00
2023-05-11T16:13:39.581Z,1.00
2023-05-11T16:23:44.174Z,0.93
2023-05-11T16:33:47.455Z,1.13
2023-05-11T16:43:52.049Z,0.77
2023-05-11T16:53:55.207Z,0.60
2023-05-11T17:03:59.848Z,0.60
2023-05-11T17:14:03.483Z,0.90
2023-05-11T17:24:09.160Z,0.50
2023-05-11T17:34:12.607Z,0.85
2023-05-11T17:44:17.446Z,0.80
2023-05-11T17:54:20.641Z,0.73
2023-05-11T18:04:25.190Z,0.93
2023-05-11T18:14:28.798Z,0.85
2023-05-11T18:24:33.385Z,1.83
2023-05-11T18:34:36.587Z,1.30
2023-05-11T18:44:41.114Z,1.52
2023-05-11T18:54:44.275Z,1.15
2023-05-11T19:04:48.801Z,1.30
2023-05-11T19:14:55.343Z,1.30
2023-05-11T19:25:00.009Z,1.60
2023-05-11T19:35:03.231Z,1.52
2023-05-11T19:45:11.358Z,1.20
2023-05-11T19:55:14.733Z,1.50
2023-05-11T20:05:19.493Z,1.80
2023-05-11T20:15:22.670Z,1.90
2023-05-11T20:25:27.214Z,1.67
2023-05-11T20:35:31.090Z,1.80
2023-05-11T20:45:35.617Z,1.90
2023-05-11T20:55:39.428Z,1.70
2023-05-11T21:05:43.944Z,1.50
2023-05-11T21:15:47.088Z,1.60
2023-05-11T21:25:54.343Z,1.80
2023-05-11T21:35:58.811Z,1.60
2023-05-11T21:46:03.491Z,1.80
2023-05-11T21:56:06.835Z,1.80
2023-05-11T22:06:11.321Z,1.98
2023-05-11T22:16:14.513Z,1.88
2023-05-11T22:26:19.079Z,2.37
2023-05-11T22:36:22.300Z,2.00
2023-05-11T22:46:26.942Z,1.60
2023-05-11T22:56:30.588Z,1.60
2023-05-11T23:06:35.221Z,1.63
2023-05-11T23:16:38.414Z,1.70
2023-05-11T23:26:42.953Z,1.50
2023-05-11T23:36:46.634Z,1.70
2023-05-11T23:46:51.203Z,1.58
2023-05-11T23:56:54.414Z,2.30
